sensor_id;sensor_type;location;lat;lon;timestamp;P1;durP1;ratioP1;P2;durP2;ratioP2
55678;SDS011;41573;51.446;-2.018;2023-04-25T00:01:21;8.45;;;3.30;;
55678;SDS011;41573;51.446;-2.018;2023-04-25T00:03:47;5.97;;;3.28;;
55678;SDS011;41573;51.446;-2.018;2023-04-25T00:06:13;9.23;;;3.25;;
55678;SDS011;41573;51.446;-2.018;2023-04-25T00:08:38;10.95;;;3.65;;
55678;SDS011;41573;51.446;-2.018;2023-04-25T00:11:04;7.55;;;2.95;;
55678;SDS011;41573;51.446;-2.018;2023-04-25T00:13:30;9.35;;;3.70;;
55678;SDS011;41573;51.446;-2.018;2023-04-25T08:52:30;3.55;;;1.50;;
55678;SDS011;41573;51.446;-2.018;2023-04-25T08:55:01;2.08;;;1.02;;
55678;SDS011;41573;51.446;-2.018;2023-04-25T08:57:26;5.22;;;1.33;;
55678;SDS011;41573;51.446;-2.018;2023-04-25T08:59:52;2.45;;;1.38;;
55678;SDS011;41573;51.446;-2.018;2023-04-25T09:02:18;4.45;;;1.40;;
55678;SDS011;41573;51.446;-2.018;2023-04-25T09:04:45;4.07;;;1.27;;
55678;SDS011;41573;51.446;-2.018;2023-04-25T09:07:11;2.83;;;1.45;;
55678;SDS011;41573;51.446;-2.018;2023-04-25T09:09:36;3.50;;;1.20;;
55678;SDS011;41573;51.446;-2.018;2023-04-25T09:12:02;6.35;;;1.10;;
55678;SDS011;41573;51.446;-2.018;2023-04-25T09:14:28;3.50;;;1.45;;
55678;SDS011;41573;51.446;-2.018;2023-04-25T09:16:57;3.47;;;1.05;;
55678;SDS011;41573;51.446;-2.018;2023-04-25T09:19:25;5.50;;;1.50;;
55678;SDS011;41573;51.446;-2.018;2023-04-25T09:21:55;2.58;;;1.45;;
55678;SDS011;41573;51.446;-2.018;2023-04-25T09:26:57;10.38;;;1.20;;
55678;SDS011;41573;51.446;-2.018;2023-04-25T09:29:30;5.68;;;1.10;;
55678;SDS011;41573;51.446;-2.018;2023-04-25T09:34:48;14.60;;;1.40;;
55678;SDS011;41573;51.446;-2.018;2023-04-25T09:37:23;3.72;;;1.73;;
55678;SDS011;41573;51.446;-2.018;2023-04-25T09:39:56;9.25;;;1.25;;
55678;SDS011;41573;51.446;-2.018;2023-04-25T09:42:26;4.78;;;1.00;;
55678;SDS011;41573;51.446;-2.018;2023-04-25T09:44:54;7.13;;;1.42;;
55678;SDS011;41573;51.446;-2.018;2023-04-25T09:47:20;8.75;;;1.30;;
55678;SDS011;41573;51.446;-2.018;2023-04-25T09:49:48;4.75;;;1.17;;
55678;SDS011;41573;51.446;-2.018;2023-04-25T09:52:16;19.40;;;1.70;;
55678;SDS011;41573;51.446;-2.018;2023-04-25T09:54:45;3.28;;;0.88;;
55678;SDS011;41573;51.446;-2.018;2023-04-25T09:57:22;3.10;;;0.88;;
55678;SDS011;41573;51.446;-2.018;2023-04-25T09:59:49;1.35;;;0.82;;
55678;SDS011;41573;51.446;-2.018;2023-04-25T10:02:17;4.05;;;1.08;;
55678;SDS011;41573;51.446;-2.018;2023-04-25T10:04:47;2.42;;;0.90;;
55678;SDS011;41573;51.446;-2.018;2023-04-25T10:07:15;3.00;;;0.80;;
55678;SDS011;41573;51.446;-2.018;2023-04-25T10:09:42;5.50;;;1.17;;
55678;SDS011;41573;51.446;-2.018;2023-04-25T10:12:12;1.45;;;0.93;;
55678;SDS011;41573;51.446;-2.018;2023-04-25T10:14:37;5.28;;;1.10;;
55678;SDS011;41573;51.446;-2.018;2023-04-25T10:17:03;1.67;;;0.68;;
55678;SDS011;41573;51.446;-2.018;2023-04-25T10:19:29;0.95;;;0.80;;
55678;SDS011;41573;51.446;-2.018;2023-04-25T10:22:08;5.93;;;1.13;;
55678;SDS011;41573;51.446;-2.018;2023-04-25T10:24:39;1.95;;;1.02;;
55678;SDS011;41573;51.446;-2.018;2023-04-25T10:27:06;2.78;;;0.65;;
55678;SDS011;41573;51.446;-2.018;2023-04-25T10:29:32;2.45;;;0.85;;
55678;SDS011;41573;51.446;-2.018;2023-04-25T10:31:57;7.20;;;1.00;;
55678;SDS011;41573;51.446;-2.018;2023-04-25T10:34:39;2.60;;;1.00;;
55678;SDS011;41573;51.446;-2.018;2023-04-25T10:37:08;1.27;;;0.80;;
55678;SDS011;41573;51.446;-2.018;2023-04-25T10:39:35;1.80;;;0.90;;
55678;SDS011;41573;51.446;-2.018;2023-04-25T10:42:01;3.92;;;1.38;;
55678;SDS011;41573;51.446;-2.018;2023-04-25T10:44:28;2.63;;;1.00;;
55678;SDS011;41573;51.446;-2.018;2023-04-25T10:46:58;1.63;;;0.82;;
55678;SDS011;41573;51.446;-2.018;2023-04-25T10:49:32;2.20;;;0.80;;
55678;SDS011;41573;51.446;-2.018;2023-04-25T10:55:00;4.57;;;1.10;;
55678;SDS011;41573;51.446;-2.018;2023-04-25T11:00:13;1.33;;;0.93;;
55678;SDS011;41573;51.446;-2.018;2023-04-25T11:02:42;2.45;;;0.98;;
55678;SDS011;41573;51.446;-2.018;2023-04-25T11:05:19;1.33;;;0.90;;
55678;SDS011;41573;51.446;-2.018;2023-04-25T11:07:51;2.97;;;1.35;;
55678;SDS011;41573;51.446;-2.018;2023-04-25T11:10:26;0.95;;;0.88;;
55678;SDS011;41573;51.446;-2.018;2023-04-25T11:12:56;3.05;;;1.02;;
55678;SDS011;41573;51.446;-2.018;2023-04-25T11:15:22;1.85;;;0.90;;
55678;SDS011;41573;51.446;-2.018;2023-04-25T11:17:48;2.88;;;1.08;;
55678;SDS011;41573;51.446;-2.018;2023-04-25T11:20:13;6.28;;;1.30;;
55678;SDS011;41573;51.446;-2.018;2023-04-25T11:22:40;4.63;;;1.42;;
55678;SDS011;41573;51.446;-2.018;2023-04-25T11:25:10;1.67;;;0.95;;
55678;SDS011;41573;51.446;-2.018;2023-04-25T11:27:37;1.73;;;1.05;;
55678;SDS011;41573;51.446;-2.018;2023-04-25T11:30:14;1.52;;;0.90;;
55678;SDS011;41573;51.446;-2.018;2023-04-25T11:32:40;1.98;;;1.10;;
55678;SDS011;41573;51.446;-2.018;2023-04-25T11:35:07;1.60;;;1.10;;
55678;SDS011;41573;51.446;-2.018;2023-04-25T11:37:32;5.28;;;1.25;;
55678;SDS011;41573;51.446;-2.018;2023-04-25T11:39:59;1.60;;;1.02;;
55678;SDS011;41573;51.446;-2.018;2023-04-25T11:42:25;2.13;;;1.20;;
55678;SDS011;41573;51.446;-2.018;2023-04-25T11:44:50;1.67;;;1.13;;
55678;SDS011;41573;51.446;-2.018;2023-04-25T11:47:16;3.53;;;1.35;;
55678;SDS011;41573;51.446;-2.018;2023-04-25T11:49:41;3.08;;;0.88;;
55678;SDS011;41573;51.446;-2.018;2023-04-25T11:52:07;4.50;;;1.20;;
55678;SDS011;41573;51.446;-2.018;2023-04-25T11:54:34;1.65;;;0.75;;
55678;SDS011;41573;51.446;-2.018;2023-04-25T11:57:00;2.25;;;1.10;;
55678;SDS011;41573;51.446;-2.018;2023-04-25T11:59:26;4.07;;;1.00;;
55678;SDS011;41573;51.446;-2.018;2023-04-25T12:01:52;1.15;;;0.80;;
55678;SDS011;41573;51.446;-2.018;2023-04-25T12:04:22;1.45;;;0.85;;
55678;SDS011;41573;51.446;-2.018;2023-04-25T12:06:50;1.45;;;0.90;;
55678;SDS011;41573;51.446;-2.018;2023-04-25T12:09:28;8.43;;;1.30;;
55678;SDS011;41573;51.446;-2.018;2023-04-25T12:12:05;5.70;;;1.48;;
55678;SDS011;41573;51.446;-2.018;2023-04-25T12:14:35;1.05;;;0.80;;
55678;SDS011;41573;51.446;-2.018;2023-04-25T12:17:01;2.35;;;1.02;;
55678;SDS011;41573;51.446;-2.018;2023-04-25T12:19:32;3.22;;;0.90;;
55678;SDS011;41573;51.446;-2.018;2023-04-25T12:22:00;2.33;;;1.00;;
55678;SDS011;41573;51.446;-2.018;2023-04-25T12:24:28;1.67;;;1.20;;
55678;SDS011;41573;51.446;-2.018;2023-04-25T12:26:57;1.17;;;0.80;;
55678;SDS011;41573;51.446;-2.018;2023-04-25T12:29:33;1.38;;;0.73;;
55678;SDS011;41573;51.446;-2.018;2023-04-25T12:31:59;2.90;;;0.98;;
55678;SDS011;41573;51.446;-2.018;2023-04-25T12:34:26;3.80;;;1.00;;
55678;SDS011;41573;51.446;-2.018;2023-04-25T12:36:52;1.27;;;1.08;;
55678;SDS011;41573;51.446;-2.018;2023-04-25T12:39:21;2.28;;;1.05;;
55678;SDS011;41573;51.446;-2.018;2023-04-25T12:41:48;2.15;;;1.05;;
55678;SDS011;41573;51.446;-2.018;2023-04-25T12:44:15;4.00;;;0.85;;
55678;SDS011;41573;51.446;-2.018;2023-04-25T12:46:41;2.45;;;1.00;;
55678;SDS011;41573;51.446;-2.018;2023-04-25T12:49:06;1.42;;;0.90;;
55678;SDS011;41573;51.446;-2.018;2023-04-25T12:51:33;4.03;;;0.93;;
55678;SDS011;41573;51.446;-2.018;2023-04-25T12:54:00;2.13;;;1.00;;
55678;SDS011;41573;51.446;-2.018;2023-04-25T12:56:26;2.63;;;1.10;;
55678;SDS011;41573;51.446;-2.018;2023-04-25T12:58:52;4.20;;;1.05;;
55678;SDS011;41573;51.446;-2.018;2023-04-25T13:01:18;1.60;;;0.88;;
55678;SDS011;41573;51.446;-2.018;2023-04-25T13:03:44;0.82;;;0.82;;
55678;SDS011;41573;51.446;-2.018;2023-04-25T13:06:09;3.22;;;1.10;;
55678;SDS011;41573;51.446;-2.018;2023-04-25T13:08:35;1.33;;;0.85;;
55678;SDS011;41573;51.446;-2.018;2023-04-25T13:11:01;1.98;;;1.00;;
55678;SDS011;41573;51.446;-2.018;2023-04-25T13:13:28;2.20;;;1.10;;
55678;SDS011;41573;51.446;-2.018;2023-04-25T13:15:54;4.90;;;1.00;;
55678;SDS011;41573;51.446;-2.018;2023-04-25T13:18:19;2.08;;;1.10;;
55678;SDS011;41573;51.446;-2.018;2023-04-25T13:20:45;2.45;;;1.50;;
55678;SDS011;41573;51.446;-2.018;2023-04-25T13:23:11;2.15;;;1.10;;
55678;SDS011;41573;51.446;-2.018;2023-04-25T13:25:36;1.65;;;1.00;;
55678;SDS011;41573;51.446;-2.018;2023-04-25T13:28:02;3.25;;;1.20;;
55678;SDS011;41573;51.446;-2.018;2023-04-25T13:30:28;3.63;;;1.33;;
55678;SDS011;41573;51.446;-2.018;2023-04-25T13:32:53;5.30;;;1.33;;
55678;SDS011;41573;51.446;-2.018;2023-04-25T13:35:21;2.47;;;1.00;;
55678;SDS011;41573;51.446;-2.018;2023-04-25T13:37:46;4.20;;;1.48;;
55678;SDS011;41573;51.446;-2.018;2023-04-25T13:40:12;1.73;;;1.00;;
55678;SDS011;41573;51.446;-2.018;2023-04-25T13:42:38;2.78;;;1.08;;
55678;SDS011;41573;51.446;-2.018;2023-04-25T13:45:04;1.15;;;0.90;;
55678;SDS011;41573;51.446;-2.018;2023-04-25T13:47:30;2.90;;;1.15;;
55678;SDS011;41573;51.446;-2.018;2023-04-25T13:49:56;3.25;;;1.75;;
55678;SDS011;41573;51.446;-2.018;2023-04-25T13:52:21;1.48;;;1.00;;
55678;SDS011;41573;51.446;-2.018;2023-04-25T13:54:49;2.40;;;1.23;;
55678;SDS011;41573;51.446;-2.018;2023-04-25T13:57:14;1.42;;;0.90;;
55678;SDS011;41573;51.446;-2.018;2023-04-25T13:59:40;1.10;;;0.80;;
55678;SDS011;41573;51.446;-2.018;2023-04-25T14:02:06;2.15;;;1.15;;
55678;SDS011;41573;51.446;-2.018;2023-04-25T14:04:32;2.08;;;1.02;;
55678;SDS011;41573;51.446;-2.018;2023-04-25T14:06:58;3.92;;;1.75;;
55678;SDS011;41573;51.446;-2.018;2023-04-25T14:09:23;3.63;;;0.90;;
55678;SDS011;41573;51.446;-2.018;2023-04-25T14:11:53;3.28;;;1.25;;
55678;SDS011;41573;51.446;-2.018;2023-04-25T14:14:20;3.55;;;1.42;;
55678;SDS011;41573;51.446;-2.018;2023-04-25T14:16:47;3.17;;;1.17;;
55678;SDS011;41573;51.446;-2.018;2023-04-25T14:19:13;3.28;;;1.20;;
55678;SDS011;41573;51.446;-2.018;2023-04-25T14:21:41;2.72;;;1.00;;
55678;SDS011;41573;51.446;-2.018;2023-04-25T14:24:10;3.72;;;1.02;;
55678;SDS011;41573;51.446;-2.018;2023-04-25T14:26:36;2.85;;;1.20;;
55678;SDS011;41573;51.446;-2.018;2023-04-25T14:29:02;2.63;;;1.13;;
55678;SDS011;41573;51.446;-2.018;2023-04-25T14:31:28;3.55;;;1.10;;
55678;SDS011;41573;51.446;-2.018;2023-04-25T14:33:53;3.47;;;1.35;;
55678;SDS011;41573;51.446;-2.018;2023-04-25T14:36:19;3.40;;;1.00;;
55678;SDS011;41573;51.446;-2.018;2023-04-25T14:38:45;3.00;;;1.38;;
55678;SDS011;41573;51.446;-2.018;2023-04-25T14:41:10;2.72;;;1.35;;
55678;SDS011;41573;51.446;-2.018;2023-04-25T14:43:36;1.52;;;1.10;;
55678;SDS011;41573;51.446;-2.018;2023-04-25T14:46:01;1.48;;;1.17;;
55678;SDS011;41573;51.446;-2.018;2023-04-25T14:48:28;1.92;;;1.15;;
55678;SDS011;41573;51.446;-2.018;2023-04-25T14:50:54;2.47;;;1.27;;
55678;SDS011;41573;51.446;-2.018;2023-04-25T14:53:21;5.93;;;1.25;;
55678;SDS011;41573;51.446;-2.018;2023-04-25T14:55:47;2.55;;;1.10;;
55678;SDS011;41573;51.446;-2.018;2023-04-25T14:58:13;3.30;;;1.40;;
55678;SDS011;41573;51.446;-2.018;2023-04-25T15:00:39;4.47;;;1.20;;
55678;SDS011;41573;51.446;-2.018;2023-04-25T15:03:05;2.60;;;1.17;;
55678;SDS011;41573;51.446;-2.018;2023-04-25T15:05:32;3.05;;;1.20;;
55678;SDS011;41573;51.446;-2.018;2023-04-25T15:07:58;3.22;;;1.17;;
55678;SDS011;41573;51.446;-2.018;2023-04-25T15:10:23;3.42;;;0.98;;
55678;SDS011;41573;51.446;-2.018;2023-04-25T15:12:49;2.85;;;1.30;;
55678;SDS011;41573;51.446;-2.018;2023-04-25T15:15:15;3.15;;;1.00;;
55678;SDS011;41573;51.446;-2.018;2023-04-25T15:17:41;3.42;;;1.20;;
55678;SDS011;41573;51.446;-2.018;2023-04-25T15:20:08;1.65;;;1.02;;
55678;SDS011;41573;51.446;-2.018;2023-04-25T15:22:35;3.45;;;0.98;;
55678;SDS011;41573;51.446;-2.018;2023-04-25T15:25:07;2.97;;;1.42;;
55678;SDS011;41573;51.446;-2.018;2023-04-25T15:27:37;1.67;;;1.10;;
55678;SDS011;41573;51.446;-2.018;2023-04-25T15:30:06;2.13;;;1.10;;
55678;SDS011;41573;51.446;-2.018;2023-04-25T15:32:32;1.75;;;1.20;;
55678;SDS011;41573;51.446;-2.018;2023-04-25T15:34:58;3.22;;;1.30;;
55678;SDS011;41573;51.446;-2.018;2023-04-25T15:37:23;3.15;;;1.10;;
55678;SDS011;41573;51.446;-2.018;2023-04-25T15:39:51;3.35;;;1.63;;
55678;SDS011;41573;51.446;-2.018;2023-04-25T15:42:26;3.78;;;1.50;;
55678;SDS011;41573;51.446;-2.018;2023-04-25T15:44:51;1.50;;;1.02;;
55678;SDS011;41573;51.446;-2.018;2023-04-25T15:47:16;3.75;;;1.15;;
55678;SDS011;41573;51.446;-2.018;2023-04-25T15:49:42;1.73;;;1.05;;
55678;SDS011;41573;51.446;-2.018;2023-04-25T15:52:07;2.33;;;1.30;;
55678;SDS011;41573;51.446;-2.018;2023-04-25T15:54:33;4.22;;;1.58;;
55678;SDS011;41573;51.446;-2.018;2023-04-25T15:56:58;2.53;;;0.98;;
55678;SDS011;41573;51.446;-2.018;2023-04-25T15:59:23;3.95;;;1.13;;
55678;SDS011;41573;51.446;-2.018;2023-04-25T16:01:49;3.40;;;1.20;;
55678;SDS011;41573;51.446;-2.018;2023-04-25T16:04:14;2.92;;;0.98;;
55678;SDS011;41573;51.446;-2.018;2023-04-25T16:06:39;3.83;;;1.10;;
55678;SDS011;41573;51.446;-2.018;2023-04-25T16:09:06;2.58;;;1.30;;
55678;SDS011;41573;51.446;-2.018;2023-04-25T16:11:32;4.00;;;1.58;;
55678;SDS011;41573;51.446;-2.018;2023-04-25T16:13:57;4.35;;;1.20;;
55678;SDS011;41573;51.446;-2.018;2023-04-25T16:16:23;1.85;;;1.23;;
55678;SDS011;41573;51.446;-2.018;2023-04-25T16:18:48;3.00;;;1.30;;
55678;SDS011;41573;51.446;-2.018;2023-04-25T16:21:14;3.40;;;1.10;;
55678;SDS011;41573;51.446;-2.018;2023-04-25T16:23:43;2.70;;;1.40;;
55678;SDS011;41573;51.446;-2.018;2023-04-25T16:26:11;3.47;;;1.30;;
55678;SDS011;41573;51.446;-2.018;2023-04-25T16:28:37;3.85;;;1.30;;
55678;SDS011;41573;51.446;-2.018;2023-04-25T16:31:02;1.48;;;1.00;;
55678;SDS011;41573;51.446;-2.018;2023-04-25T16:33:27;1.70;;;0.90;;
55678;SDS011;41573;51.446;-2.018;2023-04-25T16:35:53;1.73;;;1.10;;
55678;SDS011;41573;51.446;-2.018;2023-04-25T16:38:18;6.72;;;1.55;;
55678;SDS011;41573;51.446;-2.018;2023-04-25T16:40:43;3.85;;;1.35;;
55678;SDS011;41573;51.446;-2.018;2023-04-25T16:43:09;4.07;;;1.30;;
55678;SDS011;41573;51.446;-2.018;2023-04-25T16:45:34;2.38;;;1.20;;
55678;SDS011;41573;51.446;-2.018;2023-04-25T16:48:00;2.78;;;1.60;;
55678;SDS011;41573;51.446;-2.018;2023-04-25T16:50:25;5.03;;;1.30;;
55678;SDS011;41573;51.446;-2.018;2023-04-25T16:52:51;3.55;;;1.65;;
55678;SDS011;41573;51.446;-2.018;2023-04-25T16:55:16;3.38;;;2.13;;
55678;SDS011;41573;51.446;-2.018;2023-04-25T16:57:42;2.05;;;1.23;;
55678;SDS011;41573;51.446;-2.018;2023-04-25T17:00:07;3.10;;;1.60;;
55678;SDS011;41573;51.446;-2.018;2023-04-25T17:02:33;5.93;;;1.80;;
55678;SDS011;41573;51.446;-2.018;2023-04-25T17:04:59;3.15;;;1.55;;
55678;SDS011;41573;51.446;-2.018;2023-04-25T17:07:24;4.95;;;1.67;;
55678;SDS011;41573;51.446;-2.018;2023-04-25T17:09:50;3.55;;;1.65;;
55678;SDS011;41573;51.446;-2.018;2023-04-25T17:12:18;4.10;;;1.63;;
55678;SDS011;41573;51.446;-2.018;2023-04-25T17:14:45;2.63;;;1.20;;
55678;SDS011;41573;51.446;-2.018;2023-04-25T17:17:11;3.65;;;1.80;;
55678;SDS011;41573;51.446;-2.018;2023-04-25T17:19:36;2.38;;;1.42;;
55678;SDS011;41573;51.446;-2.018;2023-04-25T17:22:02;2.67;;;1.52;;
55678;SDS011;41573;51.446;-2.018;2023-04-25T17:24:27;3.17;;;1.45;;
55678;SDS011;41573;51.446;-2.018;2023-04-25T17:26:52;5.40;;;1.42;;
55678;SDS011;41573;51.446;-2.018;2023-04-25T17:29:18;6.90;;;1.63;;
55678;SDS011;41573;51.446;-2.018;2023-04-25T17:31:45;2.22;;;1.30;;
55678;SDS011;41573;51.446;-2.018;2023-04-25T17:34:11;2.28;;;1.30;;
55678;SDS011;41573;51.446;-2.018;2023-04-25T17:36:41;8.27;;;1.55;;
55678;SDS011;41573;51.446;-2.018;2023-04-25T17:39:07;2.78;;;1.48;;
55678;SDS011;41573;51.446;-2.018;2023-04-25T17:41:34;4.28;;;1.60;;
55678;SDS011;41573;51.446;-2.018;2023-04-25T17:44:01;3.88;;;1.17;;
55678;SDS011;41573;51.446;-2.018;2023-04-25T17:46:27;5.30;;;1.55;;
55678;SDS011;41573;51.446;-2.018;2023-04-25T17:48:53;2.17;;;1.35;;
55678;SDS011;41573;51.446;-2.018;2023-04-25T17:51:18;3.60;;;1.30;;
55678;SDS011;41573;51.446;-2.018;2023-04-25T17:53:44;2.85;;;1.50;;
55678;SDS011;41573;51.446;-2.018;2023-04-25T17:56:09;6.05;;;1.55;;
55678;SDS011;41573;51.446;-2.018;2023-04-25T17:58:35;1.90;;;1.40;;
55678;SDS011;41573;51.446;-2.018;2023-04-25T18:01:00;4.15;;;1.60;;
55678;SDS011;41573;51.446;-2.018;2023-04-25T18:03:28;4.85;;;1.48;;
55678;SDS011;41573;51.446;-2.018;2023-04-25T18:05:53;1.88;;;1.27;;
55678;SDS011;41573;51.446;-2.018;2023-04-25T18:08:18;6.75;;;1.52;;
55678;SDS011;41573;51.446;-2.018;2023-04-25T18:10:46;3.72;;;1.55;;
55678;SDS011;41573;51.446;-2.018;2023-04-25T18:13:11;3.25;;;1.30;;
55678;SDS011;41573;51.446;-2.018;2023-04-25T18:15:36;3.17;;;1.60;;
55678;SDS011;41573;51.446;-2.018;2023-04-25T18:18:02;2.90;;;1.73;;
55678;SDS011;41573;51.446;-2.018;2023-04-25T18:20:33;3.15;;;1.60;;
55678;SDS011;41573;51.446;-2.018;2023-04-25T18:22:58;4.18;;;1.70;;
55678;SDS011;41573;51.446;-2.018;2023-04-25T18:25:24;3.00;;;1.98;;
55678;SDS011;41573;51.446;-2.018;2023-04-25T18:27:50;4.60;;;1.60;;
55678;SDS011;41573;51.446;-2.018;2023-04-25T18:30:16;2.42;;;1.60;;
55678;SDS011;41573;51.446;-2.018;2023-04-25T18:32:41;2.97;;;1.38;;
55678;SDS011;41573;51.446;-2.018;2023-04-25T18:35:07;2.33;;;1.13;;
55678;SDS011;41573;51.446;-2.018;2023-04-25T18:37:34;5.18;;;1.50;;
55678;SDS011;41573;51.446;-2.018;2023-04-25T18:39:59;2.90;;;1.33;;
55678;SDS011;41573;51.446;-2.018;2023-04-25T18:42:30;5.05;;;1.30;;
55678;SDS011;41573;51.446;-2.018;2023-04-25T18:44:55;4.25;;;1.58;;
55678;SDS011;41573;51.446;-2.018;2023-04-25T18:47:20;3.08;;;1.30;;
55678;SDS011;41573;51.446;-2.018;2023-04-25T18:49:46;4.05;;;1.67;;
55678;SDS011;41573;51.446;-2.018;2023-04-25T18:52:11;3.60;;;1.30;;
55678;SDS011;41573;51.446;-2.018;2023-04-25T18:54:39;4.47;;;1.60;;
55678;SDS011;41573;51.446;-2.018;2023-04-25T18:57:05;1.42;;;1.23;;
55678;SDS011;41573;51.446;-2.018;2023-04-25T18:59:31;4.30;;;1.55;;
55678;SDS011;41573;51.446;-2.018;2023-04-25T19:01:57;5.78;;;1.90;;
55678;SDS011;41573;51.446;-2.018;2023-04-25T19:04:25;3.50;;;1.55;;
55678;SDS011;41573;51.446;-2.018;2023-04-25T19:06:51;1.98;;;1.35;;
55678;SDS011;41573;51.446;-2.018;2023-04-25T19:09:18;2.40;;;1.50;;
55678;SDS011;41573;51.446;-2.018;2023-04-25T19:11:43;4.55;;;1.80;;
55678;SDS011;41573;51.446;-2.018;2023-04-25T19:14:09;6.93;;;1.63;;
55678;SDS011;41573;51.446;-2.018;2023-04-25T19:16:35;5.68;;;1.55;;
55678;SDS011;41573;51.446;-2.018;2023-04-25T19:19:04;4.03;;;1.77;;
55678;SDS011;41573;51.446;-2.018;2023-04-25T19:21:30;8.57;;;2.03;;
55678;SDS011;41573;51.446;-2.018;2023-04-25T19:23:57;4.03;;;1.70;;
55678;SDS011;41573;51.446;-2.018;2023-04-25T19:26:22;3.38;;;1.70;;
55678;SDS011;41573;51.446;-2.018;2023-04-25T19:29:01;5.28;;;1.70;;
55678;SDS011;41573;51.446;-2.018;2023-04-25T19:31:30;2.97;;;1.80;;
55678;SDS011;41573;51.446;-2.018;2023-04-25T19:33:57;4.57;;;1.75;;
55678;SDS011;41573;51.446;-2.018;2023-04-25T19:36:23;4.32;;;2.00;;
55678;SDS011;41573;51.446;-2.018;2023-04-25T19:38:49;4.75;;;2.05;;
55678;SDS011;41573;51.446;-2.018;2023-04-25T19:41:15;8.13;;;2.03;;
55678;SDS011;41573;51.446;-2.018;2023-04-25T19:43:40;4.95;;;1.75;;
55678;SDS011;41573;51.446;-2.018;2023-04-25T19:46:06;7.03;;;2.70;;
55678;SDS011;41573;51.446;-2.018;2023-04-25T19:48:31;3.75;;;1.65;;
55678;SDS011;41573;51.446;-2.018;2023-04-25T19:50:56;5.85;;;2.13;;
55678;SDS011;41573;51.446;-2.018;2023-04-25T19:53:22;6.88;;;2.03;;
55678;SDS011;41573;51.446;-2.018;2023-04-25T19:55:47;4.28;;;1.70;;
55678;SDS011;41573;51.446;-2.018;2023-04-25T19:58:13;2.38;;;1.45;;
55678;SDS011;41573;51.446;-2.018;2023-04-25T20:00:38;3.95;;;1.60;;
55678;SDS011;41573;51.446;-2.018;2023-04-25T20:03:04;10.93;;;2.47;;
55678;SDS011;41573;51.446;-2.018;2023-04-25T20:05:29;31.00;;;7.40;;
55678;SDS011;41573;51.446;-2.018;2023-04-25T20:07:57;24.88;;;6.63;;
55678;SDS011;41573;51.446;-2.018;2023-04-25T20:10:22;32.13;;;6.30;;
55678;SDS011;41573;51.446;-2.018;2023-04-25T20:12:48;63.83;;;11.45;;
55678;SDS011;41573;51.446;-2.018;2023-04-25T20:15:15;86.55;;;14.23;;
55678;SDS011;41573;51.446;-2.018;2023-04-25T20:17:41;57.50;;;13.85;;
55678;SDS011;41573;51.446;-2.018;2023-04-25T20:20:07;13.27;;;5.35;;
55678;SDS011;41573;51.446;-2.018;2023-04-25T20:22:34;9.35;;;3.55;;
55678;SDS011;41573;51.446;-2.018;2023-04-25T20:25:04;42.58;;;9.23;;
55678;SDS011;41573;51.446;-2.018;2023-04-25T20:27:32;21.58;;;6.35;;
55678;SDS011;41573;51.446;-2.018;2023-04-25T20:29:57;57.10;;;13.57;;
55678;SDS011;41573;51.446;-2.018;2023-04-25T20:32:26;34.15;;;8.93;;
55678;SDS011;41573;51.446;-2.018;2023-04-25T20:34:52;13.02;;;4.97;;
55678;SDS011;41573;51.446;-2.018;2023-04-25T20:37:18;10.85;;;3.17;;
55678;SDS011;41573;51.446;-2.018;2023-04-25T20:39:44;8.15;;;2.80;;
55678;SDS011;41573;51.446;-2.018;2023-04-25T20:44:52;4.25;;;2.13;;
55678;SDS011;41573;51.446;-2.018;2023-04-25T20:47:18;4.43;;;2.50;;
55678;SDS011;41573;51.446;-2.018;2023-04-25T20:49:44;4.22;;;2.13;;
55678;SDS011;41573;51.446;-2.018;2023-04-25T20:52:10;4.80;;;1.85;;
55678;SDS011;41573;51.446;-2.018;2023-04-25T20:54:36;3.20;;;1.80;;
55678;SDS011;41573;51.446;-2.018;2023-04-25T20:57:02;6.30;;;2.20;;
55678;SDS011;41573;51.446;-2.018;2023-04-25T20:59:27;3.50;;;2.10;;
55678;SDS011;41573;51.446;-2.018;2023-04-25T21:01:53;2.83;;;1.58;;
55678;SDS011;41573;51.446;-2.018;2023-04-25T21:04:19;3.80;;;1.83;;
55678;SDS011;41573;51.446;-2.018;2023-04-25T21:06:44;6.45;;;1.83;;
55678;SDS011;41573;51.446;-2.018;2023-04-25T21:09:10;4.47;;;1.63;;
55678;SDS011;41573;51.446;-2.018;2023-04-25T21:11:35;6.70;;;2.45;;
55678;SDS011;41573;51.446;-2.018;2023-04-25T21:14:02;6.47;;;1.75;;
55678;SDS011;41573;51.446;-2.018;2023-04-25T21:16:29;2.85;;;1.88;;
55678;SDS011;41573;51.446;-2.018;2023-04-25T21:18:56;4.28;;;1.73;;
55678;SDS011;41573;51.446;-2.018;2023-04-25T21:21:31;4.25;;;2.00;;
55678;SDS011;41573;51.446;-2.018;2023-04-25T21:23:56;10.80;;;1.90;;
55678;SDS011;41573;51.446;-2.018;2023-04-25T21:26:22;3.55;;;1.85;;
55678;SDS011;41573;51.446;-2.018;2023-04-25T21:28:48;2.67;;;1.40;;
55678;SDS011;41573;51.446;-2.018;2023-04-25T21:31:13;4.00;;;1.77;;
55678;SDS011;41573;51.446;-2.018;2023-04-25T21:33:39;4.55;;;2.17;;
55678;SDS011;41573;51.446;-2.018;2023-04-25T21:36:04;4.68;;;2.17;;
55678;SDS011;41573;51.446;-2.018;2023-04-25T21:38:30;4.78;;;2.22;;
55678;SDS011;41573;51.446;-2.018;2023-04-25T21:40:56;6.22;;;1.92;;
55678;SDS011;41573;51.446;-2.018;2023-04-25T21:43:22;5.20;;;2.13;;
55678;SDS011;41573;51.446;-2.018;2023-04-25T21:45:47;5.13;;;2.28;;
55678;SDS011;41573;51.446;-2.018;2023-04-25T21:48:12;4.95;;;2.55;;
55678;SDS011;41573;51.446;-2.018;2023-04-25T21:50:38;2.95;;;1.63;;
55678;SDS011;41573;51.446;-2.018;2023-04-25T21:53:03;4.00;;;1.92;;
55678;SDS011;41573;51.446;-2.018;2023-04-25T21:55:30;7.72;;;2.15;;
55678;SDS011;41573;51.446;-2.018;2023-04-25T21:57:55;4.72;;;1.90;;
55678;SDS011;41573;51.446;-2.018;2023-04-25T22:00:21;7.13;;;2.17;;
55678;SDS011;41573;51.446;-2.018;2023-04-25T22:02:51;4.68;;;1.73;;
55678;SDS011;41573;51.446;-2.018;2023-04-25T22:05:20;5.30;;;1.73;;
55678;SDS011;41573;51.446;-2.018;2023-04-25T22:07:50;3.25;;;1.88;;
55678;SDS011;41573;51.446;-2.018;2023-04-25T22:10:17;6.38;;;2.00;;
55678;SDS011;41573;51.446;-2.018;2023-04-25T22:12:46;6.63;;;2.40;;
55678;SDS011;41573;51.446;-2.018;2023-04-25T22:15:14;5.07;;;2.00;;
55678;SDS011;41573;51.446;-2.018;2023-04-25T22:17:46;6.10;;;2.30;;
55678;SDS011;41573;51.446;-2.018;2023-04-25T22:20:12;6.95;;;1.65;;
55678;SDS011;41573;51.446;-2.018;2023-04-25T22:22:46;2.70;;;1.67;;
55678;SDS011;41573;51.446;-2.018;2023-04-25T22:25:13;3.78;;;1.77;;
55678;SDS011;41573;51.446;-2.018;2023-04-25T22:27:42;4.40;;;1.83;;
55678;SDS011;41573;51.446;-2.018;2023-04-25T22:30:08;5.37;;;2.30;;
55678;SDS011;41573;51.446;-2.018;2023-04-25T22:32:39;6.55;;;1.98;;
55678;SDS011;41573;51.446;-2.018;2023-04-25T22:35:05;4.05;;;1.95;;
55678;SDS011;41573;51.446;-2.018;2023-04-25T22:37:31;6.97;;;2.78;;
55678;SDS011;41573;51.446;-2.018;2023-04-25T22:39:56;5.00;;;2.30;;
55678;SDS011;41573;51.446;-2.018;2023-04-25T22:42:22;4.70;;;2.35;;
55678;SDS011;41573;51.446;-2.018;2023-04-25T22:44:48;7.05;;;2.40;;
55678;SDS011;41573;51.446;-2.018;2023-04-25T22:47:13;5.30;;;2.03;;
55678;SDS011;41573;51.446;-2.018;2023-04-25T22:49:39;5.93;;;2.22;;
55678;SDS011;41573;51.446;-2.018;2023-04-25T22:52:04;10.20;;;2.13;;
55678;SDS011;41573;51.446;-2.018;2023-04-25T22:54:32;4.93;;;2.03;;
55678;SDS011;41573;51.446;-2.018;2023-04-25T22:56:58;4.40;;;2.15;;
55678;SDS011;41573;51.446;-2.018;2023-04-25T22:59:24;6.22;;;1.60;;
55678;SDS011;41573;51.446;-2.018;2023-04-25T23:01:50;3.28;;;1.85;;
55678;SDS011;41573;51.446;-2.018;2023-04-25T23:04:16;7.80;;;1.95;;
55678;SDS011;41573;51.446;-2.018;2023-04-25T23:06:43;3.10;;;1.90;;
55678;SDS011;41573;51.446;-2.018;2023-04-25T23:09:09;5.20;;;1.73;;
55678;SDS011;41573;51.446;-2.018;2023-04-25T23:11:36;3.28;;;1.92;;
55678;SDS011;41573;51.446;-2.018;2023-04-25T23:14:02;6.72;;;2.85;;
55678;SDS011;41573;51.446;-2.018;2023-04-25T23:16:33;7.60;;;2.30;;
55678;SDS011;41573;51.446;-2.018;2023-04-25T23:18:59;5.53;;;2.47;;
55678;SDS011;41573;51.446;-2.018;2023-04-25T23:21:24;4.28;;;2.20;;